createdAt,value
2022-10-22T00:01:20.258Z,17.35
2022-10-22T00:03:46.752Z,21.67
2022-10-22T00:06:13.317Z,24.08
2022-10-22T00:08:39.840Z,27.55
2022-10-22T00:11:13.532Z,23.75
2022-10-22T00:13:40.395Z,21.65
2022-10-22T00:16:07.475Z,17.83
2022-10-22T00:18:33.925Z,19.42
2022-10-22T00:21:00.326Z,17.50
2022-10-22T00:23:26.745Z,19.33
2022-10-22T00:25:53.456Z,19.88
2022-10-22T00:28:19.857Z,18.42
2022-10-22T00:30:46.829Z,20.10
2022-10-22T00:33:13.623Z,27.40
2022-10-22T00:35:40.096Z,18.95
2022-10-22T00:38:06.541Z,22.42
2022-10-22T00:40:32.964Z,16.00
2022-10-22T00:42:59.397Z,22.65
2022-10-22T00:45:26.376Z,22.48
2022-10-22T00:47:55.510Z,18.08
2022-10-22T00:50:24.672Z,18.63
2022-10-22T00:52:51.481Z,18.65
2022-10-22T00:55:18.495Z,27.98
2022-10-22T00:57:45.728Z,16.38
2022-10-22T01:00:12.706Z,20.25
2022-10-22T01:02:39.554Z,24.15
2022-10-22T01:05:06.621Z,26.35
2022-10-22T01:07:35.762Z,17.00
2022-10-22T01:10:02.211Z,18.98
2022-10-22T01:12:28.628Z,17.48
2022-10-22T01:15:13.801Z,16.90
2022-10-22T01:17:49.376Z,22.52
2022-10-22T01:20:22.274Z,19.98
2022-10-22T01:23:01.113Z,23.27
2022-10-22T01:25:37.931Z,21.85
2022-10-22T01:28:18.248Z,19.25
2022-10-22T01:30:46.003Z,20.40
2022-10-22T01:33:13.790Z,22.27
2022-10-22T01:35:42.877Z,18.98
2022-10-22T01:38:12.719Z,24.55
2022-10-22T01:40:39.274Z,23.02
2022-10-22T01:43:07.401Z,23.02
2022-10-22T01:45:38.745Z,24.02
2022-10-22T01:48:17.589Z,18.20
2022-10-22T01:50:44.005Z,18.75
2022-10-22T01:53:10.417Z,21.13
2022-10-22T01:55:41.942Z,25.35
2022-10-22T01:58:40.968Z,20.00
2022-10-22T02:01:14.205Z,18.92
2022-10-22T02:03:59.607Z,19.73
2022-10-22T02:06:27.898Z,19.77
2022-10-22T02:08:54.663Z,30.13
2022-10-22T02:11:21.289Z,18.60
2022-10-22T02:13:53.233Z,15.90
2022-10-22T02:16:28.449Z,19.17
2022-10-22T02:18:56.953Z,13.57
2022-10-22T02:21:23.463Z,14.02
2022-10-22T02:23:49.982Z,11.88
2022-10-22T02:26:20.512Z,18.75
2022-10-22T02:28:58.500Z,13.63
2022-10-22T02:31:28.213Z,12.20
2022-10-22T02:33:55.910Z,14.00
2022-10-22T02:36:23.320Z,14.32
2022-10-22T02:38:50.883Z,15.50
2022-10-22T02:41:18.219Z,15.95
2022-10-22T02:43:48.637Z,16.52
2022-10-22T02:46:15.238Z,14.05
2022-10-22T02:48:41.642Z,13.68
2022-10-22T02:51:08.223Z,15.77
2022-10-22T02:53:34.663Z,12.98
2022-10-22T02:56:01.168Z,13.60
2022-10-22T02:58:27.617Z,15.50
2022-10-22T03:00:54.094Z,13.98
2022-10-22T03:03:20.564Z,14.30
2022-10-22T03:05:46.978Z,14.80
2022-10-22T03:08:13.403Z,12.50
2022-10-22T03:10:39.804Z,14.27
2022-10-22T03:13:06.260Z,14.65
2022-10-22T03:15:32.694Z,14.02
2022-10-22T03:17:59.118Z,16.35
2022-10-22T03:20:25.512Z,12.93
2022-10-22T03:22:52.662Z,14.10
2022-10-22T03:25:22.508Z,18.13
2022-10-22T03:27:49.704Z,28.25
2022-10-22T03:30:16.146Z,14.88
2022-10-22T03:32:42.645Z,14.38
2022-10-22T03:35:09.198Z,13.88
2022-10-22T03:37:36.039Z,13.32
2022-10-22T03:40:03.809Z,17.60
2022-10-22T03:42:30.316Z,14.45
2022-10-22T03:44:56.714Z,20.98
2022-10-22T03:47:25.999Z,13.98
2022-10-22T03:49:52.410Z,15.02
2022-10-22T03:52:18.868Z,16.45
2022-10-22T03:54:45.366Z,13.35
2022-10-22T03:57:11.945Z,20.10
2022-10-22T03:59:39.405Z,15.18
2022-10-22T04:02:05.960Z,15.50
2022-10-22T04:04:32.668Z,17.00
2022-10-22T04:06:59.455Z,13.05
2022-10-22T04:09:25.878Z,15.27
2022-10-22T04:11:52.379Z,16.10
2022-10-22T04:14:18.845Z,14.40
2022-10-22T04:16:45.258Z,15.00
2022-10-22T04:19:11.685Z,19.80
2022-10-22T04:21:38.080Z,13.40
2022-10-22T04:24:04.589Z,15.93
2022-10-22T04:26:31.051Z,16.40
2022-10-22T04:28:57.476Z,19.52
2022-10-22T04:31:24.932Z,18.30
2022-10-22T04:33:55.206Z,14.57
2022-10-22T04:36:22.012Z,14.57
2022-10-22T04:38:52.564Z,14.00
2022-10-22T04:41:21.406Z,13.60
2022-10-22T04:43:48.091Z,18.27
2022-10-22T04:46:15.691Z,18.90
2022-10-22T04:48:42.620Z,17.60
2022-10-22T04:51:10.565Z,17.02
2022-10-22T04:53:37.101Z,13.20
2022-10-22T04:56:07.832Z,13.10
2022-10-22T04:58:34.389Z,14.45
2022-10-22T05:01:00.793Z,12.60
2022-10-22T05:03:27.350Z,14.05
2022-10-22T05:05:53.785Z,15.15
2022-10-22T05:08:20.234Z,14.93
2022-10-22T05:10:46.620Z,16.52
2022-10-22T05:13:13.028Z,14.20
2022-10-22T05:15:39.458Z,14.02
2022-10-22T05:18:05.909Z,14.95
2022-10-22T05:20:32.448Z,15.43
2022-10-22T05:22:58.853Z,15.45
2022-10-22T05:25:25.276Z,14.48
2022-10-22T05:27:51.719Z,13.80
2022-10-22T05:30:18.162Z,15.13
2022-10-22T05:32:44.920Z,16.45
2022-10-22T05:35:11.385Z,14.98
2022-10-22T05:37:37.973Z,17.13
2022-10-22T05:40:19.401Z,14.48
2022-10-22T05:42:51.631Z,15.18
2022-10-22T05:45:18.078Z,15.18
2022-10-22T05:47:44.578Z,16.45
2022-10-22T05:50:11.020Z,17.55
2022-10-22T05:52:37.617Z,16.55
2022-10-22T05:55:04.417Z,15.50
2022-10-22T05:57:30.868Z,17.17
2022-10-22T05:59:57.308Z,22.63
2022-10-22T06:02:23.769Z,15.20
2022-10-22T06:04:50.180Z,19.20
2022-10-22T06:07:16.723Z,18.00
2022-10-22T06:09:43.180Z,17.45
2022-10-22T06:12:10.958Z,17.40
2022-10-22T06:14:37.401Z,18.65
2022-10-22T06:17:03.844Z,19.33
2022-10-22T06:19:31.239Z,17.63
2022-10-22T06:21:57.691Z,18.92
2022-10-22T06:24:24.211Z,16.48
2022-10-22T06:26:51.281Z,18.38
2022-10-22T06:29:17.866Z,17.70
2022-10-22T06:31:44.314Z,19.05
2022-10-22T06:34:11.731Z,15.23
2022-10-22T06:36:38.353Z,16.33
2022-10-22T06:39:05.345Z,17.73
2022-10-22T06:41:31.854Z,22.63
2022-10-22T06:43:58.383Z,18.45
2022-10-22T06:46:24.983Z,20.45
2022-10-22T06:48:54.120Z,14.23
2022-10-22T06:51:21.187Z,14.90
2022-10-22T06:53:48.109Z,19.08
2022-10-22T06:56:15.654Z,20.88
2022-10-22T06:58:42.118Z,19.10
2022-10-22T07:01:09.905Z,16.42
2022-10-22T07:03:36.560Z,17.73
2022-10-22T07:06:03.960Z,19.35
2022-10-22T07:08:30.571Z,16.70
2022-10-22T07:10:59.120Z,17.38
2022-10-22T07:13:25.595Z,15.77
2022-10-22T07:15:52.769Z,15.68
2022-10-22T07:18:19.276Z,14.43
2022-10-22T07:20:46.838Z,14.32
2022-10-22T07:23:13.311Z,12.32
2022-10-22T07:25:40.630Z,11.93
2022-10-22T07:28:07.394Z,14.55
2022-10-22T07:30:34.253Z,12.73
2022-10-22T07:33:00.665Z,11.95
2022-10-22T07:35:27.063Z,12.23
2022-10-22T07:37:53.532Z,11.82
2022-10-22T07:40:20.029Z,12.38
2022-10-22T07:42:46.471Z,10.05
2022-10-22T07:45:13.530Z,10.88
2022-10-22T07:47:40.322Z,10.93
2022-10-22T07:50:07.833Z,10.63
2022-10-22T07:52:34.277Z,9.52
2022-10-22T07:55:00.726Z,10.05
2022-10-22T07:57:27.184Z,11.35
2022-10-22T07:59:53.700Z,10.15
2022-10-22T08:02:20.134Z,10.50
2022-10-22T08:04:46.550Z,10.20
2022-10-22T08:07:13.339Z,8.77
2022-10-22T08:09:39.821Z,7.97
2022-10-22T08:12:06.563Z,9.70
2022-10-22T08:14:32.988Z,7.93
2022-10-22T08:16:59.482Z,8.52
2022-10-22T08:19:25.998Z,8.13
2022-10-22T08:21:52.423Z,8.82
2022-10-22T08:24:18.872Z,7.50
2022-10-22T08:26:45.354Z,8.23
2022-10-22T08:29:11.836Z,7.13
2022-10-22T08:31:38.219Z,7.68
2022-10-22T08:34:05.612Z,6.45
2022-10-22T08:36:32.402Z,7.20
2022-10-22T08:38:59.269Z,5.45
2022-10-22T08:41:26.517Z,4.80
2022-10-22T08:44:12.239Z,4.78
2022-10-22T08:46:52.865Z,4.00
2022-10-22T08:49:23.104Z,4.10
2022-10-22T08:51:51.636Z,3.70
2022-10-22T08:54:47.188Z,4.70
2022-10-22T08:57:18.223Z,3.90
2022-10-22T08:59:51.857Z,4.15
2022-10-22T09:02:40.841Z,3.92
2022-10-22T09:05:34.739Z,4.32
2022-10-22T09:08:12.191Z,3.95
2022-10-22T09:10:42.736Z,3.53
2022-10-22T09:13:14.694Z,3.33
2022-10-22T09:15:43.726Z,3.85
2022-10-22T09:18:32.655Z,4.30
2022-10-22T09:21:01.872Z,3.28
2022-10-22T09:23:32.787Z,4.03
2022-10-22T09:25:59.616Z,3.00
2022-10-22T09:28:26.307Z,3.88
2022-10-22T09:30:52.846Z,3.58
2022-10-22T09:33:26.710Z,3.10
2022-10-22T09:35:58.295Z,3.08
2022-10-22T09:38:26.765Z,3.22
2022-10-22T09:40:54.574Z,2.60
2022-10-22T09:43:21.043Z,3.42
2022-10-22T09:45:48.113Z,2.72
2022-10-22T09:48:14.498Z,2.30
2022-10-22T09:50:48.409Z,7.60
2022-10-22T09:53:17.881Z,3.03
2022-10-22T09:55:44.584Z,3.00
2022-10-22T09:58:12.135Z,2.40
2022-10-22T10:00:39.645Z,3.15
2022-10-22T10:03:06.132Z,2.28
2022-10-22T10:05:34.114Z,3.03
2022-10-22T10:08:13.908Z,1.80
2022-10-22T10:10:58.944Z,4.72
2022-10-22T10:13:38.658Z,2.63
2022-10-22T10:16:05.066Z,1.90
2022-10-22T10:18:43.849Z,1.63
2022-10-22T10:21:17.353Z,2.78
2022-10-22T10:23:43.784Z,2.40
2022-10-22T10:26:24.064Z,2.45
2022-10-22T10:28:59.121Z,2.00
2022-10-22T10:31:33.634Z,2.20
2022-10-22T10:34:05.097Z,2.08
2022-10-22T10:36:31.541Z,2.65
2022-10-22T10:39:18.242Z,2.42
2022-10-22T10:41:51.550Z,2.10
2022-10-22T10:44:36.887Z,3.08
2022-10-22T10:47:16.780Z,1.70
2022-10-22T10:49:43.237Z,1.50
2022-10-22T10:52:18.806Z,2.28
2022-10-22T10:55:10.535Z,6.25
2022-10-22T10:57:36.899Z,2.28
2022-10-22T11:00:06.617Z,2.10
2022-10-22T11:02:52.285Z,1.83
2022-10-22T11:05:31.421Z,5.43
2022-10-22T11:08:03.822Z,2.00
2022-10-22T11:10:47.543Z,1.48
2022-10-22T11:13:21.561Z,2.03
2022-10-22T11:15:57.915Z,1.60
2022-10-22T11:18:28.835Z,2.30
2022-10-22T11:21:04.817Z,1.40
2022-10-22T11:23:38.035Z,1.77
2022-10-22T11:26:06.083Z,2.08
2022-10-22T11:28:35.363Z,1.95
2022-10-22T11:31:04.085Z,2.22
2022-10-22T11:33:39.486Z,2.20
2022-10-22T11:36:07.496Z,1.77
2022-10-22T11:38:35.893Z,2.08
2022-10-22T11:41:05.565Z,1.90
2022-10-22T11:43:33.469Z,2.00
2022-10-22T11:46:09.754Z,3.25
2022-10-22T11:48:37.561Z,1.90
2022-10-22T11:51:04.687Z,3.53
2022-10-22T11:53:32.445Z,2.20
2022-10-22T11:56:22.255Z,2.05
2022-10-22T11:58:53.750Z,2.13
2022-10-22T12:01:23.562Z,1.83
2022-10-22T12:03:52.420Z,1.45
2022-10-22T12:06:21.107Z,1.75
2022-10-22T12:08:54.118Z,1.23
2022-10-22T12:11:20.577Z,1.50
2022-10-22T12:14:00.216Z,1.00
2022-10-22T12:16:43.911Z,1.30
2022-10-22T12:19:27.996Z,1.50
2022-10-22T12:21:55.849Z,1.23
2022-10-22T12:24:23.147Z,1.38
2022-10-22T12:27:14.594Z,2.08
2022-10-22T12:32:30.918Z,1.60
2022-10-22T12:34:57.405Z,1.45
2022-10-22T12:37:23.861Z,1.00
2022-10-22T12:39:51.289Z,1.30
2022-10-22T12:42:18.350Z,1.58
2022-10-22T12:44:45.099Z,1.40
2022-10-22T12:47:18.339Z,1.35
2022-10-22T12:49:47.598Z,2.08
2022-10-22T12:52:16.084Z,1.73
2022-10-22T12:54:43.019Z,1.67
2022-10-22T12:57:16.906Z,1.20
2022-10-22T12:59:51.283Z,1.35
2022-10-22T13:02:21.706Z,1.35
2022-10-22T13:05:06.906Z,1.63
2022-10-22T13:07:41.272Z,1.92
2022-10-22T13:10:16.977Z,1.50
2022-10-22T13:12:45.185Z,1.30
2022-10-22T13:15:19.049Z,1.70
2022-10-22T13:17:45.928Z,1.40
2022-10-22T13:20:30.665Z,1.50
2022-10-22T13:23:02.624Z,1.30
2022-10-22T13:25:33.102Z,1.77
2022-10-22T13:28:26.576Z,1.77
2022-10-22T13:30:55.246Z,1.35
2022-10-22T13:33:22.981Z,1.20
2022-10-22T13:35:55.613Z,1.60
2022-10-22T13:38:23.911Z,3.47
2022-10-22T13:40:50.860Z,1.92
2022-10-22T13:43:17.936Z,1.63
2022-10-22T13:45:45.330Z,1.00
2022-10-22T13:48:16.583Z,1.27
2022-10-22T13:50:43.167Z,1.52
2022-10-22T13:53:10.794Z,0.90
2022-10-22T13:55:37.229Z,0.90
2022-10-22T13:58:06.938Z,1.13
2022-10-22T14:00:33.534Z,1.02
2022-10-22T14:03:00.185Z,1.20
2022-10-22T14:05:26.907Z,1.20
2022-10-22T14:07:53.549Z,1.02
2022-10-22T14:10:23.797Z,0.90
2022-10-22T14:12:53.409Z,1.20
2022-10-22T14:15:21.770Z,1.23
2022-10-22T14:17:56.112Z,1.20
2022-10-22T14:20:24.115Z,0.95
2022-10-22T14:22:50.717Z,1.08
2022-10-22T14:25:18.460Z,1.17
2022-10-22T14:27:45.267Z,1.33
2022-10-22T14:30:15.660Z,1.45
2022-10-22T14:32:42.336Z,1.05
2022-10-22T14:35:11.808Z,1.20
2022-10-22T14:37:38.212Z,1.45
2022-10-22T14:40:06.861Z,1.02
2022-10-22T14:42:38.804Z,0.98
2022-10-22T14:45:06.528Z,1.10
2022-10-22T14:47:33.222Z,1.20
2022-10-22T14:50:01.868Z,1.23
2022-10-22T14:52:28.484Z,1.15
2022-10-22T14:54:54.892Z,7.35
2022-10-22T14:57:21.332Z,5.78
2022-10-22T14:59:47.698Z,9.18
2022-10-22T15:02:14.106Z,2.40
2022-10-22T15:04:40.555Z,4.63
2022-10-22T15:07:07.092Z,3.33
2022-10-22T15:09:33.551Z,4.22
2022-10-22T15:12:00.039Z,3.25
2022-10-22T15:14:26.524Z,2.10
2022-10-22T15:16:52.984Z,2.05
2022-10-22T15:19:19.702Z,2.55
2022-10-22T15:21:46.173Z,2.03
2022-10-22T15:24:12.802Z,2.40
2022-10-22T15:26:39.338Z,3.72
2022-10-22T15:29:05.796Z,11.60
2022-10-22T15:31:43.423Z,2.83
2022-10-22T15:34:10.028Z,1.83
2022-10-22T15:36:36.424Z,1.77
2022-10-22T15:39:07.645Z,2.35
2022-10-22T15:41:34.173Z,1.80
2022-10-22T15:44:00.626Z,3.53
2022-10-22T15:46:33.196Z,2.50
2022-10-22T15:49:01.810Z,2.70
2022-10-22T15:51:28.287Z,1.77
2022-10-22T15:53:56.799Z,3.67
2022-10-22T15:56:23.941Z,2.72
2022-10-22T15:58:54.390Z,1.13
2022-10-22T16:01:20.957Z,1.50
2022-10-22T16:03:47.405Z,2.55
2022-10-22T16:06:13.865Z,3.95
2022-10-22T16:08:40.389Z,12.43
2022-10-22T16:11:06.889Z,3.22
2022-10-22T16:13:33.428Z,2.42
2022-10-22T16:16:04.317Z,1.90
2022-10-22T16:18:31.147Z,5.82
2022-10-22T16:20:57.673Z,1.98
2022-10-22T16:23:24.385Z,3.80
2022-10-22T16:25:50.849Z,5.43
2022-10-22T16:28:17.491Z,12.05
2022-10-22T16:30:44.121Z,5.00
2022-10-22T16:33:11.487Z,2.65
2022-10-22T16:35:41.877Z,3.90
2022-10-22T16:38:10.253Z,8.80
2022-10-22T16:40:36.751Z,1.48
2022-10-22T16:43:03.260Z,2.88
2022-10-22T16:45:29.751Z,5.95
2022-10-22T16:47:56.306Z,5.43
2022-10-22T16:50:22.810Z,4.97
2022-10-22T16:52:50.686Z,1.70
2022-10-22T16:55:17.231Z,2.47
2022-10-22T16:57:44.008Z,12.52
2022-10-22T17:00:10.925Z,2.15
2022-10-22T17:02:37.434Z,1.75
2022-10-22T17:05:04.089Z,2.10
2022-10-22T17:07:30.520Z,12.55
2022-10-22T17:09:56.999Z,2.38
2022-10-22T17:12:23.546Z,2.00
2022-10-22T17:14:51.144Z,3.45
2022-10-22T17:17:17.749Z,3.65
2022-10-22T17:19:44.135Z,3.60
2022-10-22T17:22:13.661Z,5.57
2022-10-22T17:24:43.849Z,3.50
2022-10-22T17:27:10.590Z,4.43
2022-10-22T17:29:37.482Z,4.10
2022-10-22T17:32:04.188Z,5.80
2022-10-22T17:34:33.155Z,16.55
2022-10-22T17:37:00.261Z,7.80
2022-10-22T17:39:27.016Z,4.93
2022-10-22T17:41:53.546Z,6.00
2022-10-22T17:44:20.242Z,7.72
2022-10-22T17:46:49.476Z,11.13
2022-10-22T17:49:17.751Z,4.63
2022-10-22T17:51:44.263Z,5.30
2022-10-22T17:54:10.734Z,5.63
2022-10-22T17:56:39.927Z,5.60
2022-10-22T17:59:07.371Z,3.63
2022-10-22T18:01:35.241Z,5.35
2022-10-22T18:04:02.954Z,5.82
2022-10-22T18:06:29.589Z,7.45
2022-10-22T18:08:56.347Z,7.75
2022-10-22T18:11:23.872Z,4.50
2022-10-22T18:13:51.170Z,8.43
2022-10-22T18:16:18.150Z,8.57
2022-10-22T18:18:46.004Z,13.63
2022-10-22T18:21:12.500Z,12.80
2022-10-22T18:23:39.060Z,18.85
2022-10-22T18:26:05.887Z,12.00
2022-10-22T18:28:32.469Z,17.10
2022-10-22T18:30:59.001Z,11.48
2022-10-22T18:33:25.714Z,11.32
2022-10-22T18:35:52.467Z,11.10
2022-10-22T18:38:21.929Z,7.78
2022-10-22T18:40:49.469Z,5.82
2022-10-22T18:43:16.848Z,7.68
2022-10-22T18:45:46.648Z,5.47
2022-10-22T18:48:14.051Z,7.88
2022-10-22T18:50:40.525Z,6.90
2022-10-22T18:53:07.294Z,16.50
2022-10-22T18:55:34.431Z,8.18
2022-10-22T18:58:00.879Z,7.20
2022-10-22T19:00:27.354Z,7.35
2022-10-22T19:02:57.143Z,8.65
2022-10-22T19:05:23.599Z,27.05
2022-10-22T19:07:50.490Z,6.65
2022-10-22T19:10:17.486Z,10.55
2022-10-22T19:12:44.151Z,7.47
2022-10-22T19:15:10.807Z,9.35
2022-10-22T19:17:37.264Z,10.10
2022-10-22T19:20:04.040Z,7.80
2022-10-22T19:22:31.218Z,9.57
2022-10-22T19:24:58.916Z,8.23
2022-10-22T19:27:25.476Z,7.45
2022-10-22T19:29:52.149Z,7.10
2022-10-22T19:32:20.088Z,11.38
2022-10-22T19:34:47.029Z,10.27
2022-10-22T19:37:13.854Z,8.68
2022-10-22T19:39:40.276Z,12.95
2022-10-22T19:42:06.917Z,15.32
2022-10-22T19:44:33.677Z,14.25
2022-10-22T19:47:00.085Z,14.50
2022-10-22T19:49:26.845Z,12.63
2022-10-22T19:51:53.296Z,11.00
2022-10-22T19:54:20.475Z,10.50
2022-10-22T19:56:47.777Z,10.10
2022-10-22T19:59:15.080Z,10.73
2022-10-22T20:01:41.579Z,11.27
2022-10-22T20:04:08.174Z,8.55
2022-10-22T20:06:34.587Z,7.18
2022-10-22T20:09:01.181Z,9.50
2022-10-22T20:11:28.994Z,8.52
2022-10-22T20:13:56.713Z,7.32
2022-10-22T20:16:24.273Z,10.43
2022-10-22T20:18:53.703Z,8.88
2022-10-22T20:21:20.895Z,9.98
2022-10-22T20:23:48.341Z,17.30
2022-10-22T20:26:14.852Z,11.45
2022-10-22T20:28:41.407Z,8.77
2022-10-22T20:31:09.034Z,8.93
2022-10-22T20:33:35.500Z,9.15
2022-10-22T20:36:04.441Z,12.25
2022-10-22T20:38:30.943Z,7.75
2022-10-22T20:41:05.838Z,10.13
2022-10-22T20:43:32.505Z,11.38
2022-10-22T20:45:59.121Z,9.52
2022-10-22T20:48:29.474Z,8.07
2022-10-22T20:50:56.099Z,10.57
2022-10-22T20:53:22.795Z,8.80
2022-10-22T20:55:50.219Z,10.93
2022-10-22T20:58:17.742Z,8.18
2022-10-22T21:00:44.856Z,9.23
2022-10-22T21:03:11.723Z,11.65
2022-10-22T21:05:38.289Z,12.18
2022-10-22T21:08:05.220Z,15.43
2022-10-22T21:10:32.835Z,10.50
2022-10-22T21:12:59.828Z,10.13
2022-10-22T21:15:27.048Z,10.45
2022-10-22T21:17:53.729Z,6.45
2022-10-22T21:20:22.433Z,7.85
2022-10-22T21:22:51.291Z,6.07
2022-10-22T21:25:17.789Z,6.30
2022-10-22T21:27:44.432Z,6.38
2022-10-22T21:30:10.893Z,8.27
2022-10-22T21:32:37.407Z,5.88
2022-10-22T21:35:03.985Z,6.57
2022-10-22T21:37:30.411Z,8.75
2022-10-22T21:39:57.482Z,5.82
2022-10-22T21:42:23.925Z,5.43
2022-10-22T21:44:50.389Z,5.75
2022-10-22T21:47:16.773Z,6.82
2022-10-22T21:49:43.583Z,6.38
2022-10-22T21:52:10.191Z,5.18
2022-10-22T21:54:37.495Z,5.10
2022-10-22T21:57:04.500Z,4.45
2022-10-22T21:59:32.593Z,5.93
2022-10-22T22:02:03.394Z,4.68
2022-10-22T22:04:32.201Z,6.60
2022-10-22T22:06:58.641Z,5.60
2022-10-22T22:09:25.054Z,5.70
2022-10-22T22:11:51.509Z,8.15
2022-10-22T22:14:17.977Z,7.13
2022-10-22T22:16:44.446Z,7.32
2022-10-22T22:19:10.900Z,7.88
2022-10-22T22:21:39.269Z,7.72
2022-10-22T22:24:06.264Z,12.07
2022-10-22T22:26:32.818Z,6.55
2022-10-22T22:28:59.677Z,7.97
2022-10-22T22:31:35.486Z,7.07
2022-10-22T22:34:03.377Z,21.92
2022-10-22T22:36:33.455Z,5.90
2022-10-22T22:38:59.933Z,6.75
2022-10-22T22:41:26.313Z,8.18
2022-10-22T22:43:52.914Z,10.43
2022-10-22T22:46:19.321Z,4.72
2022-10-22T22:48:47.630Z,6.60
2022-10-22T22:51:14.110Z,5.50
2022-10-22T22:53:40.558Z,16.02
2022-10-22T22:56:10.514Z,5.50
2022-10-22T22:58:37.617Z,6.90
2022-10-22T23:01:17.620Z,13.70
2022-10-22T23:03:45.701Z,9.55
2022-10-22T23:06:12.671Z,8.50
2022-10-22T23:08:39.455Z,12.00
2022-10-22T23:11:07.596Z,21.02
2022-10-22T23:13:34.586Z,13.85
2022-10-22T23:16:04.984Z,11.13
2022-10-22T23:18:31.477Z,5.05
2022-10-22T23:20:58.091Z,4.85
2022-10-22T23:23:24.588Z,4.28
2022-10-22T23:25:54.182Z,7.65
2022-10-22T23:28:22.459Z,14.88
2022-10-22T23:30:48.898Z,6.20
2022-10-22T23:33:16.350Z,5.22
2022-10-22T23:35:42.885Z,5.00
2022-10-22T23:38:09.318Z,7.22
2022-10-22T23:40:35.963Z,6.65
2022-10-22T23:43:02.946Z,6.82
2022-10-22T23:45:29.434Z,13.95
2022-10-22T23:47:55.859Z,5.80
2022-10-22T23:50:22.312Z,6.00
2022-10-22T23:52:48.879Z,10.77
2022-10-22T23:55:15.352Z,8.45
2022-10-22T23:57:41.839Z,5.95
